sensor_id;sensor_type;location;lat;lon;timestamp;temperature;humidity
76838;DHT22;65797;47.352;8.164;2023-06-22T00:02:16;20.30;1.00
76838;DHT22;65797;47.352;8.164;2023-06-22T00:04:43;20.30;99.90
76838;DHT22;65797;47.352;8.164;2023-06-22T00:07:08;20.20;1.00
76838;DHT22;65797;47.352;8.164;2023-06-22T00:09:34;20.20;1.00
76838;DHT22;65797;47.352;8.164;2023-06-22T00:12:00;20.20;1.00
76838;DHT22;65797;47.352;8.164;2023-06-22T00:14:25;20.20;1.00
76838;DHT22;65797;47.352;8.164;2023-06-22T00:16:51;20.20;99.90
76838;DHT22;65797;47.352;8.164;2023-06-22T00:19:21;20.20;99.90
76838;DHT22;65797;47.352;8.164;2023-06-22T00:21:47;20.20;99.90
76838;DHT22;65797;47.352;8.164;2023-06-22T00:24:21;20.00;99.90
76838;DHT22;65797;47.352;8.164;2023-06-22T00:26:48;20.00;1.00
76838;DHT22;65797;47.352;8.164;2023-06-22T00:29:14;20.00;1.00
76838;DHT22;65797;47.352;8.164;2023-06-22T00:31:40;20.00;99.90
76838;DHT22;65797;47.352;8.164;2023-06-22T00:34:05;19.90;1.00
76838;DHT22;65797;47.352;8.164;2023-06-22T00:36:34;19.90;1.00
76838;DHT22;65797;47.352;8.164;2023-06-22T00:39:00;19.90;1.00
76838;DHT22;65797;47.352;8.164;2023-06-22T00:41:26;19.80;1.00
76838;DHT22;65797;47.352;8.164;2023-06-22T00:43:54;19.90;1.00
76838;DHT22;65797;47.352;8.164;2023-06-22T00:46:21;19.80;1.00
76838;DHT22;65797;47.352;8.164;2023-06-22T00:48:48;19.80;1.00
76838;DHT22;65797;47.352;8.164;2023-06-22T00:51:14;19.80;1.00
76838;DHT22;65797;47.352;8.164;2023-06-22T00:53:40;19.80;99.90
76838;DHT22;65797;47.352;8.164;2023-06-22T00:56:06;19.80;1.00
76838;DHT22;65797;47.352;8.164;2023-06-22T00:58:35;19.70;1.00
76838;DHT22;65797;47.352;8.164;2023-06-22T01:01:01;19.70;1.00
76838;DHT22;65797;47.352;8.164;2023-06-22T01:03:27;19.60;1.00
76838;DHT22;65797;47.352;8.164;2023-06-22T01:06:02;19.60;1.00
76838;DHT22;65797;47.352;8.164;2023-06-22T01:11:18;19.60;1.00
76838;DHT22;65797;47.352;8.164;2023-06-22T01:13:57;19.50;1.00
76838;DHT22;65797;47.352;8.164;2023-06-22T01:16:34;19.50;1.00
76838;DHT22;65797;47.352;8.164;2023-06-22T01:21:56;19.50;1.00
76838;DHT22;65797;47.352;8.164;2023-06-22T01:24:32;19.50;1.00
76838;DHT22;65797;47.352;8.164;2023-06-22T01:29:40;19.40;1.00
76838;DHT22;65797;47.352;8.164;2023-06-22T01:32:09;19.30;1.00
76838;DHT22;65797;47.352;8.164;2023-06-22T01:34:36;19.10;99.90
76838;DHT22;65797;47.352;8.164;2023-06-22T01:37:03;19.10;1.00
76838;DHT22;65797;47.352;8.164;2023-06-22T01:39:29;19.20;99.90
76838;DHT22;65797;47.352;8.164;2023-06-22T01:41:57;19.20;99.90
76838;DHT22;65797;47.352;8.164;2023-06-22T01:44:23;19.20;99.90
76838;DHT22;65797;47.352;8.164;2023-06-22T01:46:50;19.20;1.00
76838;DHT22;65797;47.352;8.164;2023-06-22T01:49:16;19.20;1.00
76838;DHT22;65797;47.352;8.164;2023-06-22T01:51:42;19.20;1.00
76838;DHT22;65797;47.352;8.164;2023-06-22T01:54:08;19.20;1.00
76838;DHT22;65797;47.352;8.164;2023-06-22T01:56:34;19.20;1.00
76838;DHT22;65797;47.352;8.164;2023-06-22T02:01:31;19.10;1.00
76838;DHT22;65797;47.352;8.164;2023-06-22T02:04:06;19.10;20.10
76838;DHT22;65797;47.352;8.164;2023-06-22T02:06:37;19.00;1.00
76838;DHT22;65797;47.352;8.164;2023-06-22T02:09:08;18.90;1.00
76838;DHT22;65797;47.352;8.164;2023-06-22T02:11:36;18.90;66.20
76838;DHT22;65797;47.352;8.164;2023-06-22T02:14:02;18.80;1.00
76838;DHT22;65797;47.352;8.164;2023-06-22T02:16:28;18.70;99.90
76838;DHT22;65797;47.352;8.164;2023-06-22T02:18:56;18.80;99.90
76838;DHT22;65797;47.352;8.164;2023-06-22T02:21:29;18.80;99.90
76838;DHT22;65797;47.352;8.164;2023-06-22T02:23:54;18.80;82.60
76838;DHT22;65797;47.352;8.164;2023-06-22T02:26:20;18.80;48.00
76838;DHT22;65797;47.352;8.164;2023-06-22T02:28:46;18.90;48.00
76838;DHT22;65797;47.352;8.164;2023-06-22T02:31:12;18.90;1.00
76838;DHT22;65797;47.352;8.164;2023-06-22T02:33:37;18.80;29.30
76838;DHT22;65797;47.352;8.164;2023-06-22T02:36:03;18.80;26.10
76838;DHT22;65797;47.352;8.164;2023-06-22T02:38:31;18.80;1.00
76838;DHT22;65797;47.352;8.164;2023-06-22T02:41:00;18.80;98.60
76838;DHT22;65797;47.352;8.164;2023-06-22T02:43:26;18.70;1.00
76838;DHT22;65797;47.352;8.164;2023-06-22T02:45:51;18.70;99.90
76838;DHT22;65797;47.352;8.164;2023-06-22T02:48:17;18.70;99.90
76838;DHT22;65797;47.352;8.164;2023-06-22T02:50:43;18.70;99.90
76838;DHT22;65797;47.352;8.164;2023-06-22T02:53:08;18.70;99.90
76838;DHT22;65797;47.352;8.164;2023-06-22T02:55:34;18.70;1.00
76838;DHT22;65797;47.352;8.164;2023-06-22T02:58:00;18.70;1.00
76838;DHT22;65797;47.352;8.164;2023-06-22T03:00:30;18.70;69.60
76838;DHT22;65797;47.352;8.164;2023-06-22T03:02:57;18.70;1.00
76838;DHT22;65797;47.352;8.164;2023-06-22T03:05:23;18.60;5.40
76838;DHT22;65797;47.352;8.164;2023-06-22T03:07:49;18.70;27.30
76838;DHT22;65797;47.352;8.164;2023-06-22T03:10:15;18.60;1.00
76838;DHT22;65797;47.352;8.164;2023-06-22T03:12:42;18.60;99.90
76838;DHT22;65797;47.352;8.164;2023-06-22T03:15:09;18.60;99.90
76838;DHT22;65797;47.352;8.164;2023-06-22T03:17:36;18.50;99.90
76838;DHT22;65797;47.352;8.164;2023-06-22T03:20:04;18.50;99.90
76838;DHT22;65797;47.352;8.164;2023-06-22T03:22:40;18.50;99.90
76838;DHT22;65797;47.352;8.164;2023-06-22T03:25:07;18.40;99.90
76838;DHT22;65797;47.352;8.164;2023-06-22T03:27:36;18.30;1.00
76838;DHT22;65797;47.352;8.164;2023-06-22T03:30:02;18.30;99.90
76838;DHT22;65797;47.352;8.164;2023-06-22T03:32:28;18.20;1.00
76838;DHT22;65797;47.352;8.164;2023-06-22T03:34:54;18.20;1.00
76838;DHT22;65797;47.352;8.164;2023-06-22T03:37:19;18.20;1.00
76838;DHT22;65797;47.352;8.164;2023-06-22T03:39:59;18.20;99.90
76838;DHT22;65797;47.352;8.164;2023-06-22T03:42:30;18.30;1.00
76838;DHT22;65797;47.352;8.164;2023-06-22T03:44:56;18.30;99.90
76838;DHT22;65797;47.352;8.164;2023-06-22T03:47:22;18.20;99.90
76838;DHT22;65797;47.352;8.164;2023-06-22T03:49:48;18.20;99.90
76838;DHT22;65797;47.352;8.164;2023-06-22T03:52:13;18.20;99.90
76838;DHT22;65797;47.352;8.164;2023-06-22T03:54:39;18.20;99.90
76838;DHT22;65797;47.352;8.164;2023-06-22T03:57:05;18.20;99.90
76838;DHT22;65797;47.352;8.164;2023-06-22T03:59:31;18.20;99.90
76838;DHT22;65797;47.352;8.164;2023-06-22T04:01:57;18.20;1.00
76838;DHT22;65797;47.352;8.164;2023-06-22T04:04:23;18.20;99.90
76838;DHT22;65797;47.352;8.164;2023-06-22T04:06:49;18.20;1.00
76838;DHT22;65797;47.352;8.164;2023-06-22T04:09:14;18.20;99.90
76838;DHT22;65797;47.352;8.164;2023-06-22T04:11:40;18.20;99.90
76838;DHT22;65797;47.352;8.164;2023-06-22T04:14:06;18.30;99.90
76838;DHT22;65797;47.352;8.164;2023-06-22T04:16:31;18.30;1.00
76838;DHT22;65797;47.352;8.164;2023-06-22T04:18:57;18.30;99.90
76838;DHT22;65797;47.352;8.164;2023-06-22T04:21:23;18.30;1.00
76838;DHT22;65797;47.352;8.164;2023-06-22T04:23:48;18.30;1.00
76838;DHT22;65797;47.352;8.164;2023-06-22T04:26:14;18.40;1.00
76838;DHT22;65797;47.352;8.164;2023-06-22T04:28:40;18.50;1.00
76838;DHT22;65797;47.352;8.164;2023-06-22T04:31:24;18.50;99.90
76838;DHT22;65797;47.352;8.164;2023-06-22T04:33:57;18.50;1.00
76838;DHT22;65797;47.352;8.164;2023-06-22T04:36:31;18.70;1.00
76838;DHT22;65797;47.352;8.164;2023-06-22T04:39:04;18.70;1.00
76838;DHT22;65797;47.352;8.164;2023-06-22T04:41:29;18.80;1.00
76838;DHT22;65797;47.352;8.164;2023-06-22T04:43:55;18.90;1.00
76838;DHT22;65797;47.352;8.164;2023-06-22T04:46:25;19.00;99.90
76838;DHT22;65797;47.352;8.164;2023-06-22T04:48:51;19.20;1.00
76838;DHT22;65797;47.352;8.164;2023-06-22T04:51:16;19.30;99.90
76838;DHT22;65797;47.352;8.164;2023-06-22T04:53:47;19.40;99.90
76838;DHT22;65797;47.352;8.164;2023-06-22T04:56:12;19.60;99.90
76838;DHT22;65797;47.352;8.164;2023-06-22T04:58:38;19.70;48.40
76838;DHT22;65797;47.352;8.164;2023-06-22T05:38:05;22.10;1.00
76838;DHT22;65797;47.352;8.164;2023-06-22T05:40:31;22.20;1.00
76838;DHT22;65797;47.352;8.164;2023-06-22T05:42:57;22.40;1.00
76838;DHT22;65797;47.352;8.164;2023-06-22T05:45:22;22.50;99.90
76838;DHT22;65797;47.352;8.164;2023-06-22T05:47:48;22.40;1.00
76838;DHT22;65797;47.352;8.164;2023-06-22T05:50:14;22.60;1.00
76838;DHT22;65797;47.352;8.164;2023-06-22T05:52:40;22.80;1.00
76838;DHT22;65797;47.352;8.164;2023-06-22T05:55:05;23.00;99.90
76838;DHT22;65797;47.352;8.164;2023-06-22T05:57:31;23.10;99.90
76838;DHT22;65797;47.352;8.164;2023-06-22T06:00:00;23.30;99.90
76838;DHT22;65797;47.352;8.164;2023-06-22T06:02:28;23.50;99.90
76838;DHT22;65797;47.352;8.164;2023-06-22T06:04:54;23.80;99.90
76838;DHT22;65797;47.352;8.164;2023-06-22T06:07:20;23.90;99.90
76838;DHT22;65797;47.352;8.164;2023-06-22T06:09:46;23.90;99.90
76838;DHT22;65797;47.352;8.164;2023-06-22T06:12:13;24.00;99.90
76838;DHT22;65797;47.352;8.164;2023-06-22T06:14:39;24.10;99.90
76838;DHT22;65797;47.352;8.164;2023-06-22T06:17:04;24.10;99.90
76838;DHT22;65797;47.352;8.164;2023-06-22T06:19:30;24.20;99.90
76838;DHT22;65797;47.352;8.164;2023-06-22T06:21:56;24.30;99.90
76838;DHT22;65797;47.352;8.164;2023-06-22T06:24:21;24.40;99.90
76838;DHT22;65797;47.352;8.164;2023-06-22T06:26:47;24.30;99.90
76838;DHT22;65797;47.352;8.164;2023-06-22T06:29:13;24.50;99.90
76838;DHT22;65797;47.352;8.164;2023-06-22T06:31:41;24.60;99.90
76838;DHT22;65797;47.352;8.164;2023-06-22T06:34:07;24.90;99.90
76838;DHT22;65797;47.352;8.164;2023-06-22T06:36:33;25.20;99.90
76838;DHT22;65797;47.352;8.164;2023-06-22T06:38:59;25.30;99.90
76838;DHT22;65797;47.352;8.164;2023-06-22T06:41:24;25.50;99.90
76838;DHT22;65797;47.352;8.164;2023-06-22T06:43:50;25.70;99.90
76838;DHT22;65797;47.352;8.164;2023-06-22T06:46:16;26.00;99.90
76838;DHT22;65797;47.352;8.164;2023-06-22T06:48:41;26.20;99.90
76838;DHT22;65797;47.352;8.164;2023-06-22T06:51:08;26.40;99.90
76838;DHT22;65797;47.352;8.164;2023-06-22T06:53:38;26.20;99.90
76838;DHT22;65797;47.352;8.164;2023-06-22T06:56:06;25.90;99.90
76838;DHT22;65797;47.352;8.164;2023-06-22T06:58:32;25.80;99.90
76838;DHT22;65797;47.352;8.164;2023-06-22T07:00:58;25.10;99.90
76838;DHT22;65797;47.352;8.164;2023-06-22T07:03:23;24.60;99.90
76838;DHT22;65797;47.352;8.164;2023-06-22T07:05:49;24.10;99.90
76838;DHT22;65797;47.352;8.164;2023-06-22T07:08:15;23.80;99.90
76838;DHT22;65797;47.352;8.164;2023-06-22T07:10:40;23.60;99.90
76838;DHT22;65797;47.352;8.164;2023-06-22T07:13:06;23.70;99.90
76838;DHT22;65797;47.352;8.164;2023-06-22T07:15:32;23.20;99.90
76838;DHT22;65797;47.352;8.164;2023-06-22T07:17:58;23.40;99.90
76838;DHT22;65797;47.352;8.164;2023-06-22T07:20:23;23.30;99.90
76838;DHT22;65797;47.352;8.164;2023-06-22T07:22:49;23.50;99.90
76838;DHT22;65797;47.352;8.164;2023-06-22T07:25:15;23.60;99.90
76838;DHT22;65797;47.352;8.164;2023-06-22T07:30:23;23.20;99.90
76838;DHT22;65797;47.352;8.164;2023-06-22T07:32:49;23.30;99.90
76838;DHT22;65797;47.352;8.164;2023-06-22T07:35:14;23.30;99.90
76838;DHT22;65797;47.352;8.164;2023-06-22T07:37:42;23.20;99.90
76838;DHT22;65797;47.352;8.164;2023-06-22T07:40:08;23.30;99.90
76838;DHT22;65797;47.352;8.164;2023-06-22T07:42:34;24.00;99.90
76838;DHT22;65797;47.352;8.164;2023-06-22T07:45:00;24.60;99.90
76838;DHT22;65797;47.352;8.164;2023-06-22T07:47:28;25.30;99.90
76838;DHT22;65797;47.352;8.164;2023-06-22T07:49:54;25.90;99.90
76838;DHT22;65797;47.352;8.164;2023-06-22T07:52:22;26.50;99.90
76838;DHT22;65797;47.352;8.164;2023-06-22T07:54:48;26.80;99.90
76838;DHT22;65797;47.352;8.164;2023-06-22T07:57:14;26.50;99.90
76838;DHT22;65797;47.352;8.164;2023-06-22T07:59:39;26.20;99.90
76838;DHT22;65797;47.352;8.164;2023-06-22T08:02:05;26.10;99.90
76838;DHT22;65797;47.352;8.164;2023-06-22T08:04:31;25.90;99.90
76838;DHT22;65797;47.352;8.164;2023-06-22T08:06:59;25.60;99.90
76838;DHT22;65797;47.352;8.164;2023-06-22T08:09:25;25.60;99.90
76838;DHT22;65797;47.352;8.164;2023-06-22T08:11:50;25.60;99.90
76838;DHT22;65797;47.352;8.164;2023-06-22T08:14:16;25.70;99.90
76838;DHT22;65797;47.352;8.164;2023-06-22T08:16:42;26.00;99.90
76838;DHT22;65797;47.352;8.164;2023-06-22T08:19:08;26.10;99.90
76838;DHT22;65797;47.352;8.164;2023-06-22T08:21:34;25.30;99.90
76838;DHT22;65797;47.352;8.164;2023-06-22T08:23:59;25.40;99.90
76838;DHT22;65797;47.352;8.164;2023-06-22T08:26:25;25.60;99.90
76838;DHT22;65797;47.352;8.164;2023-06-22T08:28:51;25.70;99.90
76838;DHT22;65797;47.352;8.164;2023-06-22T08:31:16;25.80;99.90
76838;DHT22;65797;47.352;8.164;2023-06-22T08:33:42;25.70;99.90
76838;DHT22;65797;47.352;8.164;2023-06-22T08:36:11;26.00;99.90
76838;DHT22;65797;47.352;8.164;2023-06-22T08:38:38;26.20;99.90
76838;DHT22;65797;47.352;8.164;2023-06-22T08:41:04;26.00;99.90
76838;DHT22;65797;47.352;8.164;2023-06-22T08:43:30;26.00;99.90
76838;DHT22;65797;47.352;8.164;2023-06-22T08:45:56;26.30;99.90
76838;DHT22;65797;47.352;8.164;2023-06-22T08:48:21;26.20;99.90
76838;DHT22;65797;47.352;8.164;2023-06-22T08:50:47;26.10;99.90
76838;DHT22;65797;47.352;8.164;2023-06-22T08:53:13;26.00;99.90
76838;DHT22;65797;47.352;8.164;2023-06-22T08:55:38;26.00;99.90
76838;DHT22;65797;47.352;8.164;2023-06-22T08:58:04;26.10;99.90
76838;DHT22;65797;47.352;8.164;2023-06-22T09:00:30;26.30;99.90
76838;DHT22;65797;47.352;8.164;2023-06-22T09:03:00;26.30;99.90
76838;DHT22;65797;47.352;8.164;2023-06-22T09:05:25;25.90;99.90
76838;DHT22;65797;47.352;8.164;2023-06-22T09:07:55;26.30;99.90
76838;DHT22;65797;47.352;8.164;2023-06-22T09:10:21;26.00;99.90
76838;DHT22;65797;47.352;8.164;2023-06-22T09:12:50;26.30;99.90
76838;DHT22;65797;47.352;8.164;2023-06-22T09:15:16;26.60;99.90
76838;DHT22;65797;47.352;8.164;2023-06-22T09:17:41;26.50;99.90
76838;DHT22;65797;47.352;8.164;2023-06-22T09:20:08;26.60;99.90
76838;DHT22;65797;47.352;8.164;2023-06-22T09:22:36;26.70;99.90
76838;DHT22;65797;47.352;8.164;2023-06-22T09:25:02;27.00;99.90
76838;DHT22;65797;47.352;8.164;2023-06-22T09:27:29;26.70;99.90
76838;DHT22;65797;47.352;8.164;2023-06-22T09:29:55;26.80;99.90
76838;DHT22;65797;47.352;8.164;2023-06-22T09:32:20;27.10;99.90
76838;DHT22;65797;47.352;8.164;2023-06-22T09:34:46;27.20;99.90
76838;DHT22;65797;47.352;8.164;2023-06-22T09:37:12;27.20;99.90
76838;DHT22;65797;47.352;8.164;2023-06-22T09:39:37;27.30;99.90
76838;DHT22;65797;47.352;8.164;2023-06-22T09:42:03;27.20;99.90
76838;DHT22;65797;47.352;8.164;2023-06-22T09:44:30;27.70;99.90
76838;DHT22;65797;47.352;8.164;2023-06-22T09:46:56;28.30;99.90
76838;DHT22;65797;47.352;8.164;2023-06-22T09:49:22;27.80;99.90
76838;DHT22;65797;47.352;8.164;2023-06-22T09:51:48;28.00;99.90
76838;DHT22;65797;47.352;8.164;2023-06-22T09:54:15;28.20;99.90
76838;DHT22;65797;47.352;8.164;2023-06-22T09:56:40;28.10;99.90
76838;DHT22;65797;47.352;8.164;2023-06-22T09:59:06;28.10;99.90
76838;DHT22;65797;47.352;8.164;2023-06-22T10:04:50;27.40;99.90
76838;DHT22;65797;47.352;8.164;2023-06-22T10:07:15;27.90;99.90
76838;DHT22;65797;47.352;8.164;2023-06-22T10:09:41;28.40;99.90
76838;DHT22;65797;47.352;8.164;2023-06-22T10:12:09;28.70;99.90
76838;DHT22;65797;47.352;8.164;2023-06-22T10:14:52;29.20;99.90
76838;DHT22;65797;47.352;8.164;2023-06-22T10:17:29;29.50;99.90
76838;DHT22;65797;47.352;8.164;2023-06-22T10:19:58;29.60;99.90
76838;DHT22;65797;47.352;8.164;2023-06-22T10:22:24;29.90;99.90
76838;DHT22;65797;47.352;8.164;2023-06-22T10:24:49;30.00;99.90
76838;DHT22;65797;47.352;8.164;2023-06-22T10:27:15;30.20;99.90
76838;DHT22;65797;47.352;8.164;2023-06-22T10:29:41;30.10;99.90
76838;DHT22;65797;47.352;8.164;2023-06-22T10:32:07;29.80;99.90
76838;DHT22;65797;47.352;8.164;2023-06-22T10:34:33;29.70;99.90
76838;DHT22;65797;47.352;8.164;2023-06-22T10:36:59;29.30;99.90
76838;DHT22;65797;47.352;8.164;2023-06-22T10:39:24;29.30;99.90
76838;DHT22;65797;47.352;8.164;2023-06-22T10:41:50;29.60;99.90
76838;DHT22;65797;47.352;8.164;2023-06-22T10:44:16;29.40;99.90
76838;DHT22;65797;47.352;8.164;2023-06-22T10:46:43;29.20;99.90
76838;DHT22;65797;47.352;8.164;2023-06-22T10:49:08;28.70;99.90
76838;DHT22;65797;47.352;8.164;2023-06-22T10:51:34;28.80;99.90
76838;DHT22;65797;47.352;8.164;2023-06-22T10:54:00;28.90;99.90
76838;DHT22;65797;47.352;8.164;2023-06-22T10:56:25;28.80;99.90
76838;DHT22;65797;47.352;8.164;2023-06-22T10:58:51;28.80;99.90
76838;DHT22;65797;47.352;8.164;2023-06-22T11:01:18;28.80;99.90
76838;DHT22;65797;47.352;8.164;2023-06-22T11:03:43;28.80;99.90
76838;DHT22;65797;47.352;8.164;2023-06-22T11:06:09;28.80;99.90
76838;DHT22;65797;47.352;8.164;2023-06-22T11:08:35;28.70;99.90
76838;DHT22;65797;47.352;8.164;2023-06-22T11:11:00;28.90;99.90
76838;DHT22;65797;47.352;8.164;2023-06-22T11:13:26;29.00;99.90
76838;DHT22;65797;47.352;8.164;2023-06-22T11:15:52;28.80;99.90
76838;DHT22;65797;47.352;8.164;2023-06-22T11:18:28;28.90;99.90
76838;DHT22;65797;47.352;8.164;2023-06-22T11:20:54;28.80;99.90
76838;DHT22;65797;47.352;8.164;2023-06-22T11:23:20;28.70;99.90
76838;DHT22;65797;47.352;8.164;2023-06-22T11:25:45;28.50;99.90
76838;DHT22;65797;47.352;8.164;2023-06-22T11:28:11;28.50;99.90
76838;DHT22;65797;47.352;8.164;2023-06-22T11:30:37;28.30;99.90
76838;DHT22;65797;47.352;8.164;2023-06-22T11:33:03;28.10;99.90
76838;DHT22;65797;47.352;8.164;2023-06-22T11:35:28;28.30;99.90
76838;DHT22;65797;47.352;8.164;2023-06-22T11:37:54;28.20;99.90
76838;DHT22;65797;47.352;8.164;2023-06-22T14:39:58;27.00;92.10
76838;DHT22;65797;47.352;8.164;2023-06-22T14:42:24;26.90;93.20
76838;DHT22;65797;47.352;8.164;2023-06-22T15:12:28;26.30;94.70
76838;DHT22;65797;47.352;8.164;2023-06-22T15:33:02;24.70;99.90
76838;DHT22;65797;47.352;8.164;2023-06-22T15:35:28;24.80;99.90
76838;DHT22;65797;47.352;8.164;2023-06-22T15:37:54;24.50;99.90
76838;DHT22;65797;47.352;8.164;2023-06-22T15:40:19;24.40;99.90
76838;DHT22;65797;47.352;8.164;2023-06-22T15:53:07;24.20;99.90
76838;DHT22;65797;47.352;8.164;2023-06-22T15:58:08;24.00;99.90
76838;DHT22;65797;47.352;8.164;2023-06-22T16:03:10;23.90;99.90
76838;DHT22;65797;47.352;8.164;2023-06-22T16:05:36;23.90;1.00
76838;DHT22;65797;47.352;8.164;2023-06-22T16:08:01;23.90;1.00
76838;DHT22;65797;47.352;8.164;2023-06-22T16:10:27;23.90;1.00
76838;DHT22;65797;47.352;8.164;2023-06-22T16:12:53;23.90;1.00
76838;DHT22;65797;47.352;8.164;2023-06-22T16:15:19;23.60;1.00
76838;DHT22;65797;47.352;8.164;2023-06-22T16:17:44;23.10;1.00
76838;DHT22;65797;47.352;8.164;2023-06-22T16:20:11;23.10;1.00
76838;DHT22;65797;47.352;8.164;2023-06-22T16:22:36;23.10;1.00
76838;DHT22;65797;47.352;8.164;2023-06-22T16:25:02;22.90;99.90
76838;DHT22;65797;47.352;8.164;2023-06-22T16:27:31;22.40;1.00
76838;DHT22;65797;47.352;8.164;2023-06-22T16:29:57;21.80;1.00
76838;DHT22;65797;47.352;8.164;2023-06-22T16:32:29;21.70;1.00
76838;DHT22;65797;47.352;8.164;2023-06-22T16:34:55;21.50;1.00
76838;DHT22;65797;47.352;8.164;2023-06-22T16:37:21;21.40;1.00
76838;DHT22;65797;47.352;8.164;2023-06-22T16:39:47;21.50;99.90
76838;DHT22;65797;47.352;8.164;2023-06-22T16:42:12;21.40;99.90
76838;DHT22;65797;47.352;8.164;2023-06-22T16:44:38;21.50;1.00
76838;DHT22;65797;47.352;8.164;2023-06-22T16:47:04;21.50;1.00
76838;DHT22;65797;47.352;8.164;2023-06-22T16:52:06;21.30;1.00
76838;DHT22;65797;47.352;8.164;2023-06-22T16:54:32;21.20;1.00
76838;DHT22;65797;47.352;8.164;2023-06-22T16:57:01;21.20;1.00
76838;DHT22;65797;47.352;8.164;2023-06-22T16:59:27;21.30;1.00
76838;DHT22;65797;47.352;8.164;2023-06-22T17:01:54;21.40;1.00
76838;DHT22;65797;47.352;8.164;2023-06-22T17:04:25;21.30;1.00
76838;DHT22;65797;47.352;8.164;2023-06-22T17:07:03;21.40;1.00
76838;DHT22;65797;47.352;8.164;2023-06-22T17:09:29;21.50;1.00
76838;DHT22;65797;47.352;8.164;2023-06-22T17:11:59;21.30;1.00
76838;DHT22;65797;47.352;8.164;2023-06-22T17:14:25;21.20;1.00
76838;DHT22;65797;47.352;8.164;2023-06-22T17:16:51;21.10;1.00
76838;DHT22;65797;47.352;8.164;2023-06-22T17:19:17;21.20;1.00
76838;DHT22;65797;47.352;8.164;2023-06-22T17:21:46;21.00;1.00
76838;DHT22;65797;47.352;8.164;2023-06-22T17:24:15;21.10;1.00
76838;DHT22;65797;47.352;8.164;2023-06-22T17:26:48;21.10;1.00
76838;DHT22;65797;47.352;8.164;2023-06-22T17:29:14;21.10;99.90
76838;DHT22;65797;47.352;8.164;2023-06-22T17:31:41;20.90;99.90
76838;DHT22;65797;47.352;8.164;2023-06-22T17:34:12;20.70;99.90
76838;DHT22;65797;47.352;8.164;2023-06-22T17:36:47;20.60;99.90
76838;DHT22;65797;47.352;8.164;2023-06-22T17:39:14;20.50;99.90
76838;DHT22;65797;47.352;8.164;2023-06-22T17:41:44;20.30;99.90
76838;DHT22;65797;47.352;8.164;2023-06-22T17:44:12;20.20;99.90
76838;DHT22;65797;47.352;8.164;2023-06-22T17:49:30;20.10;99.90
76838;DHT22;65797;47.352;8.164;2023-06-22T17:52:00;20.00;99.90
76838;DHT22;65797;47.352;8.164;2023-06-22T17:54:30;20.00;99.90
76838;DHT22;65797;47.352;8.164;2023-06-22T17:57:40;20.00;99.90
76838;DHT22;65797;47.352;8.164;2023-06-22T18:00:25;19.90;99.90
76838;DHT22;65797;47.352;8.164;2023-06-22T18:02:52;19.70;99.90
76838;DHT22;65797;47.352;8.164;2023-06-22T18:05:31;19.80;99.90
76838;DHT22;65797;47.352;8.164;2023-06-22T18:11:11;19.70;99.90
76838;DHT22;65797;47.352;8.164;2023-06-22T18:13:36;19.50;99.90
76838;DHT22;65797;47.352;8.164;2023-06-22T18:16:03;19.50;99.90
76838;DHT22;65797;47.352;8.164;2023-06-22T18:18:29;19.20;99.90
76838;DHT22;65797;47.352;8.164;2023-06-22T18:20:59;19.20;1.00
76838;DHT22;65797;47.352;8.164;2023-06-22T18:23:24;19.10;1.00
76838;DHT22;65797;47.352;8.164;2023-06-22T18:25:50;19.10;1.00
76838;DHT22;65797;47.352;8.164;2023-06-22T18:28:18;19.10;1.00
76838;DHT22;65797;47.352;8.164;2023-06-22T18:30:44;19.10;1.00
76838;DHT22;65797;47.352;8.164;2023-06-22T18:33:10;19.10;1.00
76838;DHT22;65797;47.352;8.164;2023-06-22T18:35:37;19.00;1.00
76838;DHT22;65797;47.352;8.164;2023-06-22T18:38:04;18.90;1.00
76838;DHT22;65797;47.352;8.164;2023-06-22T18:40:30;18.90;1.00
76838;DHT22;65797;47.352;8.164;2023-06-22T18:42:59;19.00;1.00
76838;DHT22;65797;47.352;8.164;2023-06-22T18:45:28;19.00;1.00
76838;DHT22;65797;47.352;8.164;2023-06-22T18:53:03;19.00;1.00
76838;DHT22;65797;47.352;8.164;2023-06-22T18:55:31;19.10;1.00
76838;DHT22;65797;47.352;8.164;2023-06-22T18:58:17;19.00;1.00
76838;DHT22;65797;47.352;8.164;2023-06-22T19:00:45;18.90;1.00
76838;DHT22;65797;47.352;8.164;2023-06-22T19:03:28;18.90;1.00
76838;DHT22;65797;47.352;8.164;2023-06-22T19:05:55;18.90;1.00
76838;DHT22;65797;47.352;8.164;2023-06-22T19:08:21;18.80;1.00
76838;DHT22;65797;47.352;8.164;2023-06-22T19:10:49;18.70;1.00
76838;DHT22;65797;47.352;8.164;2023-06-22T19:16:00;18.70;1.00
76838;DHT22;65797;47.352;8.164;2023-06-22T19:18:39;18.70;1.00
76838;DHT22;65797;47.352;8.164;2023-06-22T19:21:10;18.70;1.00
76838;DHT22;65797;47.352;8.164;2023-06-22T19:23:40;18.70;1.00
76838;DHT22;65797;47.352;8.164;2023-06-22T19:26:11;18.70;1.00
76838;DHT22;65797;47.352;8.164;2023-06-22T19:28:48;18.80;1.00
76838;DHT22;65797;47.352;8.164;2023-06-22T19:31:14;18.70;1.00
76838;DHT22;65797;47.352;8.164;2023-06-22T19:33:40;18.70;1.00
76838;DHT22;65797;47.352;8.164;2023-06-22T19:36:06;18.80;1.00
76838;DHT22;65797;47.352;8.164;2023-06-22T19:38:33;18.80;1.00
76838;DHT22;65797;47.352;8.164;2023-06-22T19:41:00;18.70;1.00
76838;DHT22;65797;47.352;8.164;2023-06-22T19:43:32;18.80;1.00
76838;DHT22;65797;47.352;8.164;2023-06-22T19:45:59;18.80;1.00
76838;DHT22;65797;47.352;8.164;2023-06-22T19:48:27;18.70;1.00
76838;DHT22;65797;47.352;8.164;2023-06-22T19:50:53;18.80;1.00
76838;DHT22;65797;47.352;8.164;2023-06-22T19:53:19;18.80;1.00
76838;DHT22;65797;47.352;8.164;2023-06-22T19:55:46;18.70;1.00
76838;DHT22;65797;47.352;8.164;2023-06-22T20:32:08;18.70;1.00
76838;DHT22;65797;47.352;8.164;2023-06-22T20:34:43;18.60;1.00
76838;DHT22;65797;47.352;8.164;2023-06-22T20:37:15;18.60;1.00
76838;DHT22;65797;47.352;8.164;2023-06-22T20:39:42;18.60;1.00
76838;DHT22;65797;47.352;8.164;2023-06-22T20:42:09;18.60;1.00
76838;DHT22;65797;47.352;8.164;2023-06-22T20:44:37;18.40;1.00
76838;DHT22;65797;47.352;8.164;2023-06-22T20:47:03;18.30;1.00
76838;DHT22;65797;47.352;8.164;2023-06-22T20:49:29;18.30;1.00
76838;DHT22;65797;47.352;8.164;2023-06-22T20:51:55;18.30;1.00
76838;DHT22;65797;47.352;8.164;2023-06-22T20:54:21;18.40;1.00
76838;DHT22;65797;47.352;8.164;2023-06-22T20:56:47;18.30;1.00
76838;DHT22;65797;47.352;8.164;2023-06-22T20:59:13;18.40;1.00
76838;DHT22;65797;47.352;8.164;2023-06-22T21:01:39;18.40;1.00
76838;DHT22;65797;47.352;8.164;2023-06-22T21:04:05;18.40;1.00
76838;DHT22;65797;47.352;8.164;2023-06-22T21:06:31;18.30;1.00
76838;DHT22;65797;47.352;8.164;2023-06-22T21:08:56;18.30;1.00
76838;DHT22;65797;47.352;8.164;2023-06-22T21:11:22;18.20;1.00
76838;DHT22;65797;47.352;8.164;2023-06-22T21:13:48;18.20;1.00
76838;DHT22;65797;47.352;8.164;2023-06-22T21:16:14;18.00;1.00
76838;DHT22;65797;47.352;8.164;2023-06-22T21:18:40;18.10;99.90
76838;DHT22;65797;47.352;8.164;2023-06-22T21:21:05;18.10;1.00
76838;DHT22;65797;47.352;8.164;2023-06-22T21:23:31;18.00;1.00